sensor_id;sensor_type;location;lat;lon;timestamp;P1;durP1;ratioP1;P2;durP2;ratioP2
62256;SDS011;48240;52.962;5.790;2022-08-03T04:14:49;15.80;;;2.00;;
62256;SDS011;48240;52.962;5.790;2022-08-03T04:17:16;8.75;;;2.00;;
62256;SDS011;48240;52.962;5.790;2022-08-03T04:19:45;8.68;;;2.05;;
62256;SDS011;48240;52.962;5.790;2022-08-03T04:22:13;11.48;;;2.00;;
62256;SDS011;48240;52.962;5.790;2022-08-03T04:24:45;10.50;;;2.60;;
62256;SDS011;48240;52.962;5.790;2022-08-03T04:27:13;9.15;;;1.85;;
62256;SDS011;48240;52.962;5.790;2022-08-03T04:29:40;18.10;;;5.72;;
62256;SDS011;48240;52.962;5.790;2022-08-03T04:32:08;10.93;;;2.90;;
62256;SDS011;48240;52.962;5.790;2022-08-03T04:34:35;10.50;;;2.40;;
62256;SDS011;48240;52.962;5.790;2022-08-03T04:37:04;18.20;;;2.50;;
62256;SDS011;48240;52.962;5.790;2022-08-03T04:39:31;9.95;;;2.35;;
62256;SDS011;48240;52.962;5.790;2022-08-03T04:41:59;12.20;;;2.15;;
62256;SDS011;48240;52.962;5.790;2022-08-03T04:44:27;10.50;;;2.08;;
62256;SDS011;48240;52.962;5.790;2022-08-03T04:46:54;11.55;;;2.25;;
62256;SDS011;48240;52.962;5.790;2022-08-03T04:49:21;8.05;;;1.90;;
62256;SDS011;48240;52.962;5.790;2022-08-03T04:51:48;11.00;;;2.40;;
62256;SDS011;48240;52.962;5.790;2022-08-03T04:54:14;12.35;;;2.58;;
62256;SDS011;48240;52.962;5.790;2022-08-03T04:56:41;13.30;;;2.40;;
62256;SDS011;48240;52.962;5.790;2022-08-03T04:59:08;11.65;;;2.35;;
62256;SDS011;48240;52.962;5.790;2022-08-03T05:01:34;12.85;;;2.80;;
62256;SDS011;48240;52.962;5.790;2022-08-03T05:04:01;9.65;;;2.10;;
62256;SDS011;48240;52.962;5.790;2022-08-03T05:06:27;8.98;;;2.30;;
62256;SDS011;48240;52.962;5.790;2022-08-03T05:08:53;11.18;;;2.25;;
62256;SDS011;48240;52.962;5.790;2022-08-03T05:11:19;11.98;;;2.33;;
62256;SDS011;48240;52.962;5.790;2022-08-03T05:13:46;12.32;;;2.40;;
62256;SDS011;48240;52.962;5.790;2022-08-03T05:16:12;14.02;;;2.53;;
62256;SDS011;48240;52.962;5.790;2022-08-03T05:18:41;10.27;;;2.50;;
62256;SDS011;48240;52.962;5.790;2022-08-03T05:21:08;11.02;;;2.38;;
62256;SDS011;48240;52.962;5.790;2022-08-03T05:23:34;9.85;;;2.22;;
62256;SDS011;48240;52.962;5.790;2022-08-03T05:26:01;15.23;;;2.70;;
62256;SDS011;48240;52.962;5.790;2022-08-03T05:28:28;6.15;;;2.00;;
62256;SDS011;48240;52.962;5.790;2022-08-03T05:30:54;10.95;;;2.33;;
62256;SDS011;48240;52.962;5.790;2022-08-03T05:33:20;14.52;;;2.60;;
62256;SDS011;48240;52.962;5.790;2022-08-03T05:35:46;11.70;;;2.13;;
62256;SDS011;48240;52.962;5.790;2022-08-03T05:38:12;15.38;;;2.58;;
62256;SDS011;48240;52.962;5.790;2022-08-03T05:40:38;10.50;;;2.22;;
62256;SDS011;48240;52.962;5.790;2022-08-03T05:43:04;12.32;;;2.50;;
62256;SDS011;48240;52.962;5.790;2022-08-03T05:45:30;12.45;;;3.00;;
62256;SDS011;48240;52.962;5.790;2022-08-03T05:47:56;9.30;;;2.30;;
62256;SDS011;48240;52.962;5.790;2022-08-03T05:50:22;11.77;;;2.40;;
62256;SDS011;48240;52.962;5.790;2022-08-03T05:52:48;15.02;;;4.40;;
62256;SDS011;48240;52.962;5.790;2022-08-03T05:55:14;11.02;;;2.95;;
62256;SDS011;48240;52.962;5.790;2022-08-03T05:57:41;11.73;;;2.55;;
62256;SDS011;48240;52.962;5.790;2022-08-03T06:00:08;14.27;;;2.97;;
62256;SDS011;48240;52.962;5.790;2022-08-03T06:02:35;10.15;;;2.70;;
62256;SDS011;48240;52.962;5.790;2022-08-03T06:05:01;7.97;;;2.42;;
62256;SDS011;48240;52.962;5.790;2022-08-03T06:07:28;15.45;;;2.92;;
62256;SDS011;48240;52.962;5.790;2022-08-03T06:09:54;20.83;;;2.72;;
62256;SDS011;48240;52.962;5.790;2022-08-03T06:12:20;12.43;;;2.97;;
62256;SDS011;48240;52.962;5.790;2022-08-03T06:14:46;11.52;;;3.38;;
62256;SDS011;48240;52.962;5.790;2022-08-03T06:17:12;14.48;;;2.88;;
62256;SDS011;48240;52.962;5.790;2022-08-03T06:19:38;13.00;;;2.90;;
62256;SDS011;48240;52.962;5.790;2022-08-03T06:22:04;14.27;;;2.78;;
62256;SDS011;48240;52.962;5.790;2022-08-03T06:24:31;13.60;;;2.50;;
62256;SDS011;48240;52.962;5.790;2022-08-03T06:26:57;12.90;;;2.90;;
62256;SDS011;48240;52.962;5.790;2022-08-03T06:29:23;16.35;;;3.00;;
62256;SDS011;48240;52.962;5.790;2022-08-03T06:31:49;17.02;;;3.35;;
62256;SDS011;48240;52.962;5.790;2022-08-03T06:34:15;16.13;;;3.17;;
62256;SDS011;48240;52.962;5.790;2022-08-03T06:36:41;13.80;;;3.42;;
62256;SDS011;48240;52.962;5.790;2022-08-03T06:39:07;15.80;;;3.55;;
62256;SDS011;48240;52.962;5.790;2022-08-03T06:41:33;16.50;;;3.80;;
62256;SDS011;48240;52.962;5.790;2022-08-03T06:43:59;13.30;;;3.42;;
62256;SDS011;48240;52.962;5.790;2022-08-03T06:46:25;14.02;;;4.15;;
62256;SDS011;48240;52.962;5.790;2022-08-03T06:48:52;14.77;;;3.72;;
62256;SDS011;48240;52.962;5.790;2022-08-03T06:51:18;16.50;;;4.60;;
62256;SDS011;48240;52.962;5.790;2022-08-03T06:53:45;18.02;;;3.97;;
62256;SDS011;48240;52.962;5.790;2022-08-03T06:56:11;19.85;;;4.82;;
62256;SDS011;48240;52.962;5.790;2022-08-03T06:58:37;18.38;;;4.80;;
62256;SDS011;48240;52.962;5.790;2022-08-03T07:01:03;19.30;;;5.32;;
62256;SDS011;48240;52.962;5.790;2022-08-03T07:03:29;23.27;;;5.07;;
62256;SDS011;48240;52.962;5.790;2022-08-03T07:05:55;19.40;;;4.80;;
62256;SDS011;48240;52.962;5.790;2022-08-03T07:08:21;16.13;;;4.93;;
62256;SDS011;48240;52.962;5.790;2022-08-03T07:10:48;15.88;;;4.82;;
62256;SDS011;48240;52.962;5.790;2022-08-03T07:13:14;30.05;;;5.57;;
62256;SDS011;48240;52.962;5.790;2022-08-03T07:15:40;26.05;;;6.00;;
62256;SDS011;48240;52.962;5.790;2022-08-03T07:18:06;22.77;;;5.90;;
62256;SDS011;48240;52.962;5.790;2022-08-03T07:20:32;16.40;;;5.20;;
62256;SDS011;48240;52.962;5.790;2022-08-03T07:22:59;20.00;;;5.53;;
62256;SDS011;48240;52.962;5.790;2022-08-03T07:25:25;21.35;;;6.53;;
62256;SDS011;48240;52.962;5.790;2022-08-03T07:27:51;23.10;;;7.00;;
62256;SDS011;48240;52.962;5.790;2022-08-03T07:30:17;17.52;;;6.35;;
62256;SDS011;48240;52.962;5.790;2022-08-03T07:32:43;26.50;;;6.97;;
62256;SDS011;48240;52.962;5.790;2022-08-03T07:35:09;23.63;;;7.32;;
62256;SDS011;48240;52.962;5.790;2022-08-03T07:37:36;17.98;;;6.80;;
62256;SDS011;48240;52.962;5.790;2022-08-03T07:40:03;19.48;;;6.72;;
62256;SDS011;48240;52.962;5.790;2022-08-03T07:42:29;21.58;;;7.10;;
62256;SDS011;48240;52.962;5.790;2022-08-03T07:44:56;19.00;;;7.00;;
62256;SDS011;48240;52.962;5.790;2022-08-03T07:47:23;19.17;;;7.10;;
62256;SDS011;48240;52.962;5.790;2022-08-03T07:49:49;22.33;;;7.53;;
62256;SDS011;48240;52.962;5.790;2022-08-03T07:52:16;21.75;;;7.82;;
62256;SDS011;48240;52.962;5.790;2022-08-03T07:55:01;22.35;;;7.43;;
62256;SDS011;48240;52.962;5.790;2022-08-03T07:57:27;17.75;;;7.57;;
62256;SDS011;48240;52.962;5.790;2022-08-03T07:59:53;23.83;;;8.10;;
62256;SDS011;48240;52.962;5.790;2022-08-03T08:02:19;19.08;;;8.52;;
62256;SDS011;48240;52.962;5.790;2022-08-03T08:04:45;16.23;;;8.25;;
62256;SDS011;48240;52.962;5.790;2022-08-03T08:07:11;20.73;;;8.48;;
62256;SDS011;48240;52.962;5.790;2022-08-03T08:09:37;19.88;;;9.55;;
62256;SDS011;48240;52.962;5.790;2022-08-03T08:12:03;29.98;;;11.02;;
62256;SDS011;48240;52.962;5.790;2022-08-03T08:14:32;25.65;;;8.80;;
62256;SDS011;48240;52.962;5.790;2022-08-03T08:16:58;16.40;;;8.52;;
62256;SDS011;48240;52.962;5.790;2022-08-03T08:19:24;16.08;;;7.28;;
62256;SDS011;48240;52.962;5.790;2022-08-03T08:21:50;14.02;;;6.75;;
62256;SDS011;48240;52.962;5.790;2022-08-03T08:24:16;17.40;;;7.13;;
62256;SDS011;48240;52.962;5.790;2022-08-03T08:26:42;19.60;;;7.50;;
62256;SDS011;48240;52.962;5.790;2022-08-03T08:29:08;15.48;;;7.20;;
62256;SDS011;48240;52.962;5.790;2022-08-03T08:31:34;15.43;;;6.95;;
62256;SDS011;48240;52.962;5.790;2022-08-03T08:34:00;20.05;;;7.25;;
62256;SDS011;48240;52.962;5.790;2022-08-03T08:36:32;17.05;;;7.10;;
62256;SDS011;48240;52.962;5.790;2022-08-03T08:38:58;14.23;;;7.55;;
62256;SDS011;48240;52.962;5.790;2022-08-03T08:41:25;14.05;;;7.88;;
62256;SDS011;48240;52.962;5.790;2022-08-03T08:43:52;18.67;;;7.10;;
62256;SDS011;48240;52.962;5.790;2022-08-03T08:46:18;14.55;;;7.15;;
62256;SDS011;48240;52.962;5.790;2022-08-03T08:48:44;12.30;;;7.68;;
62256;SDS011;48240;52.962;5.790;2022-08-03T08:51:11;15.45;;;6.45;;
62256;SDS011;48240;52.962;5.790;2022-08-03T08:53:38;16.50;;;7.07;;
62256;SDS011;48240;52.962;5.790;2022-08-03T08:56:05;15.80;;;6.90;;
62256;SDS011;48240;52.962;5.790;2022-08-03T08:58:36;14.95;;;7.10;;
62256;SDS011;48240;52.962;5.790;2022-08-03T09:01:02;13.45;;;6.53;;
62256;SDS011;48240;52.962;5.790;2022-08-03T09:03:30;15.45;;;6.50;;
62256;SDS011;48240;52.962;5.790;2022-08-03T09:05:59;15.48;;;6.75;;
62256;SDS011;48240;52.962;5.790;2022-08-03T09:08:25;12.18;;;6.97;;
62256;SDS011;48240;52.962;5.790;2022-08-03T09:10:51;13.32;;;6.78;;
62256;SDS011;48240;52.962;5.790;2022-08-03T09:13:17;8.02;;;6.63;;
62256;SDS011;48240;52.962;5.790;2022-08-03T09:15:44;13.88;;;7.20;;
62256;SDS011;48240;52.962;5.790;2022-08-03T09:18:10;13.38;;;7.07;;
62256;SDS011;48240;52.962;5.790;2022-08-03T09:20:37;17.30;;;7.70;;
62256;SDS011;48240;52.962;5.790;2022-08-03T09:23:05;14.63;;;7.32;;
62256;SDS011;48240;52.962;5.790;2022-08-03T09:28:22;18.80;;;8.25;;
62256;SDS011;48240;52.962;5.790;2022-08-03T09:30:57;19.75;;;8.27;;
62256;SDS011;48240;52.962;5.790;2022-08-03T09:33:23;18.10;;;8.45;;
62256;SDS011;48240;52.962;5.790;2022-08-03T09:35:49;14.68;;;7.65;;
62256;SDS011;48240;52.962;5.790;2022-08-03T09:38:16;13.35;;;7.90;;
62256;SDS011;48240;52.962;5.790;2022-08-03T09:40:43;16.58;;;8.70;;
62256;SDS011;48240;52.962;5.790;2022-08-03T09:43:10;16.58;;;8.25;;
62256;SDS011;48240;52.962;5.790;2022-08-03T09:45:37;15.73;;;7.93;;
62256;SDS011;48240;52.962;5.790;2022-08-03T09:50:49;17.30;;;8.32;;
62256;SDS011;48240;52.962;5.790;2022-08-03T09:53:15;15.60;;;7.50;;
62256;SDS011;48240;52.962;5.790;2022-08-03T09:58:19;18.88;;;8.00;;
62256;SDS011;48240;52.962;5.790;2022-08-03T10:03:28;17.63;;;7.82;;
62256;SDS011;48240;52.962;5.790;2022-08-03T10:05:54;12.93;;;7.43;;
62256;SDS011;48240;52.962;5.790;2022-08-03T10:08:20;16.23;;;8.20;;
62256;SDS011;48240;52.962;5.790;2022-08-03T10:10:48;13.88;;;7.30;;
62256;SDS011;48240;52.962;5.790;2022-08-03T10:13:17;14.63;;;7.60;;
62256;SDS011;48240;52.962;5.790;2022-08-03T10:15:44;15.27;;;7.38;;
62256;SDS011;48240;52.962;5.790;2022-08-03T10:18:10;17.00;;;7.88;;
62256;SDS011;48240;52.962;5.790;2022-08-03T10:20:40;14.40;;;6.95;;
62256;SDS011;48240;52.962;5.790;2022-08-03T10:23:08;13.18;;;7.03;;
62256;SDS011;48240;52.962;5.790;2022-08-03T10:25:35;15.45;;;7.40;;
62256;SDS011;48240;52.962;5.790;2022-08-03T10:28:02;15.25;;;6.90;;
62256;SDS011;48240;52.962;5.790;2022-08-03T10:30:29;21.20;;;7.03;;
62256;SDS011;48240;52.962;5.790;2022-08-03T10:33:12;15.38;;;7.07;;
62256;SDS011;48240;52.962;5.790;2022-08-03T10:35:39;17.92;;;7.13;;
62256;SDS011;48240;52.962;5.790;2022-08-03T10:38:07;18.98;;;6.95;;
62256;SDS011;48240;52.962;5.790;2022-08-03T10:40:34;16.02;;;6.75;;
62256;SDS011;48240;52.962;5.790;2022-08-03T10:43:03;14.52;;;6.63;;
62256;SDS011;48240;52.962;5.790;2022-08-03T10:45:31;14.40;;;6.28;;
62256;SDS011;48240;52.962;5.790;2022-08-03T10:47:58;14.18;;;6.50;;
62256;SDS011;48240;52.962;5.790;2022-08-03T10:50:25;18.52;;;7.20;;
62256;SDS011;48240;52.962;5.790;2022-08-03T10:52:56;14.98;;;6.72;;
62256;SDS011;48240;52.962;5.790;2022-08-03T10:55:32;15.43;;;6.27;;
62256;SDS011;48240;52.962;5.790;2022-08-03T11:01:05;18.70;;;6.78;;
62256;SDS011;48240;52.962;5.790;2022-08-03T11:03:31;16.33;;;7.07;;
62256;SDS011;48240;52.962;5.790;2022-08-03T11:06:14;15.32;;;6.13;;
62256;SDS011;48240;52.962;5.790;2022-08-03T11:08:43;15.63;;;6.53;;
62256;SDS011;48240;52.962;5.790;2022-08-03T11:16:34;16.50;;;6.70;;
62256;SDS011;48240;52.962;5.790;2022-08-03T11:19:04;10.40;;;5.60;;
62256;SDS011;48240;52.962;5.790;2022-08-03T11:29:53;21.77;;;6.35;;
62256;SDS011;48240;52.962;5.790;2022-08-03T11:37:34;15.75;;;5.53;;
62256;SDS011;48240;52.962;5.790;2022-08-03T11:40:00;18.90;;;6.10;;
62256;SDS011;48240;52.962;5.790;2022-08-03T11:44:56;17.02;;;5.82;;
62256;SDS011;48240;52.962;5.790;2022-08-03T11:47:23;12.63;;;5.18;;
62256;SDS011;48240;52.962;5.790;2022-08-03T11:49:52;12.43;;;5.60;;
62256;SDS011;48240;52.962;5.790;2022-08-03T11:52:19;13.63;;;5.20;;
62256;SDS011;48240;52.962;5.790;2022-08-03T11:54:45;13.05;;;5.43;;
62256;SDS011;48240;52.962;5.790;2022-08-03T11:57:27;15.80;;;5.72;;
62256;SDS011;48240;52.962;5.790;2022-08-03T11:59:53;16.65;;;5.60;;
62256;SDS011;48240;52.962;5.790;2022-08-03T12:02:19;15.05;;;5.28;;
62256;SDS011;48240;52.962;5.790;2022-08-03T12:04:52;15.48;;;5.25;;
62256;SDS011;48240;52.962;5.790;2022-08-03T12:07:18;10.57;;;5.35;;
62256;SDS011;48240;52.962;5.790;2022-08-03T12:12:29;12.73;;;5.45;;
62256;SDS011;48240;52.962;5.790;2022-08-03T12:14:55;16.08;;;5.32;;
62256;SDS011;48240;52.962;5.790;2022-08-03T12:17:22;10.27;;;5.10;;
62256;SDS011;48240;52.962;5.790;2022-08-03T12:19:48;11.70;;;5.22;;
62256;SDS011;48240;52.962;5.790;2022-08-03T12:22:14;11.13;;;5.50;;
62256;SDS011;48240;52.962;5.790;2022-08-03T12:24:41;13.90;;;5.70;;
62256;SDS011;48240;52.962;5.790;2022-08-03T12:27:08;19.55;;;6.57;;
62256;SDS011;48240;52.962;5.790;2022-08-03T12:29:34;12.68;;;5.45;;
62256;SDS011;48240;52.962;5.790;2022-08-03T12:32:00;13.63;;;5.28;;
62256;SDS011;48240;52.962;5.790;2022-08-03T12:34:59;14.45;;;5.45;;
62256;SDS011;48240;52.962;5.790;2022-08-03T12:37:20;13.32;;;5.47;;
62256;SDS011;48240;52.962;5.790;2022-08-03T12:39:53;16.83;;;6.22;;
62256;SDS011;48240;52.962;5.790;2022-08-03T12:42:20;15.27;;;6.15;;
62256;SDS011;48240;52.962;5.790;2022-08-03T12:44:46;14.48;;;6.22;;
62256;SDS011;48240;52.962;5.790;2022-08-03T12:47:14;14.02;;;5.63;;
62256;SDS011;48240;52.962;5.790;2022-08-03T12:49:45;13.57;;;5.65;;
62256;SDS011;48240;52.962;5.790;2022-08-03T12:52:12;13.38;;;6.05;;
62256;SDS011;48240;52.962;5.790;2022-08-03T12:54:38;12.32;;;5.40;;
62256;SDS011;48240;52.962;5.790;2022-08-03T12:59:31;11.27;;;5.82;;
62256;SDS011;48240;52.962;5.790;2022-08-03T13:01:57;11.93;;;5.75;;
62256;SDS011;48240;52.962;5.790;2022-08-03T13:04:28;15.70;;;5.93;;
62256;SDS011;48240;52.962;5.790;2022-08-03T13:06:58;10.40;;;5.45;;
62256;SDS011;48240;52.962;5.790;2022-08-03T13:09:24;15.03;;;5.67;;
62256;SDS011;48240;52.962;5.790;2022-08-03T13:12:03;21.27;;;5.97;;
62256;SDS011;48240;52.962;5.790;2022-08-03T13:14:29;11.25;;;5.35;;
62256;SDS011;48240;52.962;5.790;2022-08-03T13:16:55;15.70;;;6.10;;
62256;SDS011;48240;52.962;5.790;2022-08-03T13:19:21;14.40;;;6.35;;
62256;SDS011;48240;52.962;5.790;2022-08-03T13:21:48;12.75;;;5.90;;
62256;SDS011;48240;52.962;5.790;2022-08-03T13:24:14;13.85;;;5.50;;
62256;SDS011;48240;52.962;5.790;2022-08-03T13:26:40;15.88;;;5.40;;
62256;SDS011;48240;52.962;5.790;2022-08-03T13:29:06;9.68;;;5.32;;
62256;SDS011;48240;52.962;5.790;2022-08-03T13:31:32;10.70;;;5.70;;
62256;SDS011;48240;52.962;5.790;2022-08-03T13:33:58;12.23;;;5.47;;
62256;SDS011;48240;52.962;5.790;2022-08-03T13:36:24;11.90;;;5.70;;
62256;SDS011;48240;52.962;5.790;2022-08-03T13:38:50;17.13;;;5.65;;
62256;SDS011;48240;52.962;5.790;2022-08-03T13:41:16;13.95;;;5.50;;
62256;SDS011;48240;52.962;5.790;2022-08-03T13:43:43;9.98;;;5.00;;
62256;SDS011;48240;52.962;5.790;2022-08-03T13:46:09;12.00;;;5.32;;
62256;SDS011;48240;52.962;5.790;2022-08-03T13:48:35;9.95;;;5.35;;
62256;SDS011;48240;52.962;5.790;2022-08-03T13:51:01;14.75;;;5.75;;
62256;SDS011;48240;52.962;5.790;2022-08-03T13:53:27;12.07;;;5.63;;
62256;SDS011;48240;52.962;5.790;2022-08-03T13:55:53;11.15;;;5.65;;
62256;SDS011;48240;52.962;5.790;2022-08-03T13:58:19;12.55;;;5.95;;
62256;SDS011;48240;52.962;5.790;2022-08-03T14:00:46;11.80;;;5.70;;
62256;SDS011;48240;52.962;5.790;2022-08-03T14:03:12;9.75;;;5.55;;
62256;SDS011;48240;52.962;5.790;2022-08-03T14:05:38;8.55;;;5.35;;
62256;SDS011;48240;52.962;5.790;2022-08-03T14:08:05;9.98;;;5.13;;
62256;SDS011;48240;52.962;5.790;2022-08-03T14:10:32;9.65;;;6.10;;
62256;SDS011;48240;52.962;5.790;2022-08-03T14:12:58;14.75;;;5.75;;
62256;SDS011;48240;52.962;5.790;2022-08-03T14:15:25;15.25;;;6.40;;
62256;SDS011;48240;52.962;5.790;2022-08-03T14:17:52;15.07;;;6.05;;
62256;SDS011;48240;52.962;5.790;2022-08-03T14:20:18;15.80;;;6.05;;
62256;SDS011;48240;52.962;5.790;2022-08-03T14:22:44;11.70;;;5.70;;
62256;SDS011;48240;52.962;5.790;2022-08-03T14:25:10;15.50;;;6.22;;
62256;SDS011;48240;52.962;5.790;2022-08-03T14:27:36;14.70;;;6.05;;
62256;SDS011;48240;52.962;5.790;2022-08-03T14:30:03;14.15;;;5.72;;
62256;SDS011;48240;52.962;5.790;2022-08-03T14:32:29;13.90;;;6.13;;
62256;SDS011;48240;52.962;5.790;2022-08-03T14:34:55;13.40;;;6.53;;
62256;SDS011;48240;52.962;5.790;2022-08-03T14:37:21;46.92;;;12.90;;
62256;SDS011;48240;52.962;5.790;2022-08-03T14:39:47;61.90;;;16.70;;
62256;SDS011;48240;52.962;5.790;2022-08-03T14:42:13;55.20;;;17.40;;
62256;SDS011;48240;52.962;5.790;2022-08-03T14:44:40;58.10;;;17.30;;
62256;SDS011;48240;52.962;5.790;2022-08-03T14:47:06;55.17;;;14.73;;
62256;SDS011;48240;52.962;5.790;2022-08-03T14:49:32;38.17;;;13.30;;
62256;SDS011;48240;52.962;5.790;2022-08-03T14:51:59;37.90;;;10.80;;
62256;SDS011;48240;52.962;5.790;2022-08-03T14:54:25;32.10;;;12.23;;
62256;SDS011;48240;52.962;5.790;2022-08-03T14:56:54;33.33;;;10.93;;
62256;SDS011;48240;52.962;5.790;2022-08-03T14:59:20;37.42;;;11.75;;
62256;SDS011;48240;52.962;5.790;2022-08-03T15:01:47;35.75;;;11.68;;
62256;SDS011;48240;52.962;5.790;2022-08-03T15:04:13;36.80;;;12.30;;
62256;SDS011;48240;52.962;5.790;2022-08-03T15:06:39;33.03;;;12.02;;
62256;SDS011;48240;52.962;5.790;2022-08-03T15:09:05;37.33;;;12.25;;
62256;SDS011;48240;52.962;5.790;2022-08-03T15:11:31;37.88;;;12.15;;
62256;SDS011;48240;52.962;5.790;2022-08-03T15:13:57;48.13;;;13.95;;
62256;SDS011;48240;52.962;5.790;2022-08-03T15:16:24;40.95;;;13.48;;
62256;SDS011;48240;52.962;5.790;2022-08-03T15:18:50;52.13;;;13.88;;
62256;SDS011;48240;52.962;5.790;2022-08-03T15:21:16;49.13;;;13.50;;
62256;SDS011;48240;52.962;5.790;2022-08-03T15:23:42;37.55;;;12.25;;
62256;SDS011;48240;52.962;5.790;2022-08-03T15:26:08;37.67;;;12.15;;
62256;SDS011;48240;52.962;5.790;2022-08-03T15:28:34;41.85;;;12.57;;
62256;SDS011;48240;52.962;5.790;2022-08-03T15:31:00;38.92;;;11.90;;
62256;SDS011;48240;52.962;5.790;2022-08-03T15:33:26;32.65;;;11.73;;
62256;SDS011;48240;52.962;5.790;2022-08-03T15:35:53;34.67;;;11.10;;
62256;SDS011;48240;52.962;5.790;2022-08-03T15:38:20;33.30;;;10.80;;
62256;SDS011;48240;52.962;5.790;2022-08-03T15:40:47;31.27;;;11.15;;
62256;SDS011;48240;52.962;5.790;2022-08-03T15:43:13;36.97;;;11.43;;
62256;SDS011;48240;52.962;5.790;2022-08-03T15:45:39;30.58;;;11.13;;
62256;SDS011;48240;52.962;5.790;2022-08-03T15:48:08;33.53;;;10.35;;
62256;SDS011;48240;52.962;5.790;2022-08-03T15:50:35;29.38;;;10.43;;
62256;SDS011;48240;52.962;5.790;2022-08-03T15:53:01;26.15;;;9.95;;
62256;SDS011;48240;52.962;5.790;2022-08-03T15:55:27;25.27;;;10.13;;
62256;SDS011;48240;52.962;5.790;2022-08-03T15:57:53;29.92;;;10.07;;
62256;SDS011;48240;52.962;5.790;2022-08-03T16:00:19;27.83;;;9.73;;
62256;SDS011;48240;52.962;5.790;2022-08-03T16:02:45;25.48;;;9.85;;
62256;SDS011;48240;52.962;5.790;2022-08-03T16:05:11;29.45;;;9.68;;
62256;SDS011;48240;52.962;5.790;2022-08-03T16:07:37;24.88;;;10.18;;
62256;SDS011;48240;52.962;5.790;2022-08-03T16:10:06;26.58;;;8.85;;
62256;SDS011;48240;52.962;5.790;2022-08-03T16:12:33;26.92;;;9.25;;
62256;SDS011;48240;52.962;5.790;2022-08-03T16:14:59;21.98;;;8.68;;
62256;SDS011;48240;52.962;5.790;2022-08-03T16:17:26;25.67;;;8.93;;
62256;SDS011;48240;52.962;5.790;2022-08-03T16:19:52;22.88;;;8.27;;
62256;SDS011;48240;52.962;5.790;2022-08-03T16:22:18;29.95;;;8.80;;
62256;SDS011;48240;52.962;5.790;2022-08-03T16:24:44;25.27;;;8.95;;
62256;SDS011;48240;52.962;5.790;2022-08-03T16:27:11;25.17;;;9.00;;
62256;SDS011;48240;52.962;5.790;2022-08-03T16:29:37;28.15;;;9.18;;
62256;SDS011;48240;52.962;5.790;2022-08-03T16:32:03;22.13;;;8.30;;
62256;SDS011;48240;52.962;5.790;2022-08-03T16:34:33;21.27;;;8.50;;
62256;SDS011;48240;52.962;5.790;2022-08-03T16:36:59;23.83;;;7.90;;
62256;SDS011;48240;52.962;5.790;2022-08-03T16:39:26;18.80;;;7.25;;
62256;SDS011;48240;52.962;5.790;2022-08-03T16:41:52;18.20;;;6.13;;
62256;SDS011;48240;52.962;5.790;2022-08-03T16:44:18;16.58;;;6.15;;
62256;SDS011;48240;52.962;5.790;2022-08-03T16:46:44;17.60;;;6.40;;
62256;SDS011;48240;52.962;5.790;2022-08-03T16:49:10;18.45;;;6.38;;
62256;SDS011;48240;52.962;5.790;2022-08-03T16:51:37;17.77;;;6.50;;
62256;SDS011;48240;52.962;5.790;2022-08-03T16:54:03;16.83;;;6.13;;
62256;SDS011;48240;52.962;5.790;2022-08-03T16:56:30;18.55;;;6.75;;
62256;SDS011;48240;52.962;5.790;2022-08-03T16:58:56;26.67;;;7.93;;
62256;SDS011;48240;52.962;5.790;2022-08-03T17:01:22;16.42;;;6.63;;
62256;SDS011;48240;52.962;5.790;2022-08-03T17:03:49;15.77;;;6.38;;
62256;SDS011;48240;52.962;5.790;2022-08-03T17:06:15;14.20;;;5.95;;
62256;SDS011;48240;52.962;5.790;2022-08-03T17:08:41;19.90;;;6.43;;
62256;SDS011;48240;52.962;5.790;2022-08-03T17:11:07;18.77;;;6.93;;
62256;SDS011;48240;52.962;5.790;2022-08-03T17:13:33;17.73;;;6.50;;
62256;SDS011;48240;52.962;5.790;2022-08-03T17:16:01;17.75;;;6.20;;
62256;SDS011;48240;52.962;5.790;2022-08-03T17:18:34;17.48;;;6.78;;
62256;SDS011;48240;52.962;5.790;2022-08-03T17:21:02;14.60;;;6.43;;
62256;SDS011;48240;52.962;5.790;2022-08-03T17:25:58;17.25;;;5.93;;
62256;SDS011;48240;52.962;5.790;2022-08-03T17:28:26;14.02;;;5.75;;
62256;SDS011;48240;52.962;5.790;2022-08-03T17:30:54;14.93;;;5.88;;
62256;SDS011;48240;52.962;5.790;2022-08-03T17:33:39;19.25;;;5.38;;
62256;SDS011;48240;52.962;5.790;2022-08-03T17:36:06;17.75;;;6.10;;
62256;SDS011;48240;52.962;5.790;2022-08-03T17:38:32;17.15;;;5.82;;
62256;SDS011;48240;52.962;5.790;2022-08-03T17:40:59;13.48;;;5.75;;
62256;SDS011;48240;52.962;5.790;2022-08-03T17:43:26;12.10;;;5.35;;
62256;SDS011;48240;52.962;5.790;2022-08-03T17:45:53;17.13;;;5.38;;
62256;SDS011;48240;52.962;5.790;2022-08-03T17:48:19;13.00;;;5.63;;
62256;SDS011;48240;52.962;5.790;2022-08-03T17:50:47;12.15;;;5.65;;
62256;SDS011;48240;52.962;5.790;2022-08-03T17:53:15;9.90;;;5.18;;
62256;SDS011;48240;52.962;5.790;2022-08-03T17:55:46;10.60;;;5.27;;
62256;SDS011;48240;52.962;5.790;2022-08-03T17:58:18;10.00;;;5.15;;
62256;SDS011;48240;52.962;5.790;2022-08-03T18:00:48;11.88;;;5.82;;
62256;SDS011;48240;52.962;5.790;2022-08-03T18:03:39;15.45;;;5.70;;
62256;SDS011;48240;52.962;5.790;2022-08-03T18:06:07;12.45;;;5.15;;
62256;SDS011;48240;52.962;5.790;2022-08-03T18:08:35;14.90;;;5.32;;
62256;SDS011;48240;52.962;5.790;2022-08-03T18:11:06;11.52;;;4.88;;
62256;SDS011;48240;52.962;5.790;2022-08-03T18:14:19;12.60;;;4.93;;
62256;SDS011;48240;52.962;5.790;2022-08-03T18:16:42;12.32;;;4.88;;
62256;SDS011;48240;52.962;5.790;2022-08-03T18:19:05;10.27;;;4.65;;
62256;SDS011;48240;52.962;5.790;2022-08-03T18:21:33;12.70;;;4.90;;
62256;SDS011;48240;52.962;5.790;2022-08-03T18:23:59;11.90;;;4.65;;
62256;SDS011;48240;52.962;5.790;2022-08-03T18:26:25;14.23;;;4.90;;
62256;SDS011;48240;52.962;5.790;2022-08-03T18:28:52;12.88;;;5.18;;
62256;SDS011;48240;52.962;5.790;2022-08-03T18:31:18;14.68;;;4.50;;
62256;SDS011;48240;52.962;5.790;2022-08-03T18:33:45;11.80;;;4.72;;
62256;SDS011;48240;52.962;5.790;2022-08-03T18:36:12;14.07;;;4.65;;
62256;SDS011;48240;52.962;5.790;2022-08-03T18:38:39;11.70;;;4.63;;
62256;SDS011;48240;52.962;5.790;2022-08-03T18:41:05;12.73;;;4.45;;
62256;SDS011;48240;52.962;5.790;2022-08-03T18:43:31;11.75;;;5.03;;
62256;SDS011;48240;52.962;5.790;2022-08-03T18:45:57;9.52;;;4.28;;
62256;SDS011;48240;52.962;5.790;2022-08-03T18:48:42;16.00;;;5.38;;
62256;SDS011;48240;52.962;5.790;2022-08-03T18:51:19;13.85;;;4.70;;
62256;SDS011;48240;52.962;5.790;2022-08-03T18:56:22;11.05;;;4.47;;
62256;SDS011;48240;52.962;5.790;2022-08-03T19:01:27;9.90;;;4.43;;
62256;SDS011;48240;52.962;5.790;2022-08-03T19:03:57;10.25;;;4.53;;
62256;SDS011;48240;52.962;5.790;2022-08-03T19:06:23;13.80;;;4.80;;
62256;SDS011;48240;52.962;5.790;2022-08-03T19:09:05;14.38;;;4.55;;
62256;SDS011;48240;52.962;5.790;2022-08-03T19:11:38;8.75;;;4.28;;
62256;SDS011;48240;52.962;5.790;2022-08-03T19:14:06;15.25;;;5.25;;
62256;SDS011;48240;52.962;5.790;2022-08-03T19:16:37;11.88;;;4.20;;
62256;SDS011;48240;52.962;5.790;2022-08-03T19:19:04;9.75;;;3.80;;
62256;SDS011;48240;52.962;5.790;2022-08-03T19:21:33;11.07;;;3.80;;
62256;SDS011;48240;52.962;5.790;2022-08-03T19:24:00;11.40;;;3.80;;
62256;SDS011;48240;52.962;5.790;2022-08-03T19:26:27;10.05;;;3.92;;
62256;SDS011;48240;52.962;5.790;2022-08-03T19:28:54;8.43;;;3.40;;
62256;SDS011;48240;52.962;5.790;2022-08-03T19:31:21;10.35;;;3.22;;
62256;SDS011;48240;52.962;5.790;2022-08-03T19:33:48;12.10;;;3.80;;
62256;SDS011;48240;52.962;5.790;2022-08-03T19:36:14;8.45;;;3.65;;